createdAt,value
2017-08-29T00:00:16.341Z,19.76
2017-08-29T00:01:16.333Z,19.80
2017-08-29T00:02:16.330Z,19.85
2017-08-29T00:03:16.325Z,19.80
2017-08-29T00:04:16.322Z,19.80
2017-08-29T00:05:16.322Z,19.79
2017-08-29T00:06:16.319Z,19.90
2017-08-29T00:07:16.314Z,19.90
2017-08-29T00:08:16.310Z,19.95
2017-08-29T00:09:16.306Z,19.98
2017-08-29T00:10:16.301Z,19.83
2017-08-29T00:11:16.297Z,19.92
2017-08-29T00:12:16.292Z,19.87
2017-08-29T00:13:16.285Z,20.01
2017-08-29T00:14:16.280Z,19.97
2017-08-29T00:15:16.277Z,19.87
2017-08-29T00:16:16.272Z,19.98
2017-08-29T00:17:16.269Z,19.97
2017-08-29T00:18:16.266Z,20.01
2017-08-29T00:19:16.262Z,19.97
2017-08-29T00:20:16.257Z,20.02
2017-08-29T00:21:16.258Z,20.01
2017-08-29T00:22:16.253Z,20.01
2017-08-29T00:23:16.249Z,20.08
2017-08-29T00:24:16.244Z,20.26
2017-08-29T00:25:16.241Z,20.22
2017-08-29T00:26:16.236Z,20.35
2017-08-29T00:27:16.232Z,20.33
2017-08-29T00:28:16.229Z,20.27
2017-08-29T00:29:16.221Z,20.30
2017-08-29T00:30:16.216Z,20.33
2017-08-29T00:31:16.212Z,20.25
2017-08-29T00:32:16.207Z,20.30
2017-08-29T00:33:16.203Z,20.35
2017-08-29T00:34:16.200Z,20.35
2017-08-29T00:35:16.197Z,20.34
2017-08-29T00:36:16.192Z,20.41
2017-08-29T00:37:16.193Z,20.46
2017-08-29T00:38:16.191Z,20.42
2017-08-29T00:39:16.184Z,20.46
2017-08-29T00:40:16.179Z,20.51
2017-08-29T00:41:16.177Z,20.46
2017-08-29T00:42:16.181Z,20.58
2017-08-29T00:43:16.170Z,20.68
2017-08-29T00:44:16.164Z,20.63
2017-08-29T00:45:16.156Z,20.72
2017-08-29T00:46:16.153Z,20.75
2017-08-29T00:47:16.150Z,20.81
2017-08-29T00:48:16.144Z,20.87
2017-08-29T00:49:16.140Z,20.79
2017-08-29T00:50:16.137Z,20.98
2017-08-29T00:51:16.136Z,21.01
2017-08-29T00:52:16.129Z,21.03
2017-08-29T00:53:16.130Z,21.11
2017-08-29T00:54:16.126Z,21.05
2017-08-29T00:55:16.124Z,21.08
2017-08-29T00:56:16.117Z,21.13
2017-08-29T00:57:16.114Z,21.18
2017-08-29T00:58:16.112Z,21.22
2017-08-29T00:59:16.106Z,21.15
2017-08-29T01:00:16.103Z,21.18
2017-08-29T01:01:16.095Z,21.21
2017-08-29T01:02:16.091Z,21.19
2017-08-29T01:03:16.087Z,21.18
2017-08-29T01:04:16.084Z,21.19
2017-08-29T01:05:16.084Z,21.33
2017-08-29T01:06:16.081Z,21.36
2017-08-29T01:07:16.076Z,21.33
2017-08-29T01:08:16.072Z,21.31
2017-08-29T01:09:16.065Z,21.28
2017-08-29T01:10:16.060Z,21.30
2017-08-29T01:11:16.057Z,21.27
2017-08-29T01:12:16.051Z,21.26
2017-08-29T01:13:16.049Z,21.33
2017-08-29T01:14:16.046Z,21.28
2017-08-29T01:15:16.041Z,21.16
2017-08-29T01:16:16.038Z,21.21
2017-08-29T01:17:16.037Z,21.16
2017-08-29T01:18:16.034Z,21.33
2017-08-29T01:19:16.032Z,21.21
2017-08-29T01:20:16.045Z,21.18
2017-08-29T01:21:16.030Z,21.21
2017-08-29T01:22:16.020Z,21.24
2017-08-29T01:23:16.017Z,21.21
2017-08-29T01:24:16.011Z,21.12
2017-08-29T01:25:16.003Z,21.11
2017-08-29T01:26:16.000Z,21.06
2017-08-29T01:27:15.996Z,21.03
2017-08-29T01:28:15.993Z,21.03
2017-08-29T01:29:15.989Z,21.13
2017-08-29T01:30:15.985Z,21.19
2017-08-29T01:31:15.982Z,21.18
2017-08-29T01:32:15.977Z,21.19
2017-08-29T01:33:15.977Z,21.18
2017-08-29T01:34:15.974Z,21.16
2017-08-29T01:35:15.970Z,21.15
2017-08-29T01:36:15.967Z,21.18
2017-08-29T01:37:15.961Z,21.18
2017-08-29T01:38:15.957Z,21.11
2017-08-29T01:39:15.955Z,21.13
2017-08-29T01:40:15.951Z,21.09
2017-08-29T01:41:15.943Z,21.06
2017-08-29T01:42:15.940Z,20.93
2017-08-29T01:43:15.935Z,20.98
2017-08-29T01:44:15.931Z,20.97
2017-08-29T01:45:15.927Z,21.09
2017-08-29T01:46:15.924Z,21.09
2017-08-29T01:47:15.921Z,21.11
2017-08-29T01:48:15.916Z,21.05
2017-08-29T01:49:15.917Z,21.08
2017-08-29T01:50:15.913Z,21.06
2017-08-29T01:51:15.909Z,21.06
2017-08-29T01:52:15.904Z,21.09
2017-08-29T01:53:15.901Z,21.08
2017-08-29T01:54:15.897Z,21.08
2017-08-29T01:55:15.894Z,21.06
2017-08-29T01:56:15.890Z,21.05
2017-08-29T01:57:15.882Z,21.06
2017-08-29T01:58:15.877Z,21.06
2017-08-29T01:59:15.875Z,21.09
2017-08-29T02:00:15.869Z,21.06
2017-08-29T02:01:15.867Z,21.01
2017-08-29T02:02:15.863Z,21.00
2017-08-29T02:03:15.858Z,20.98
2017-08-29T02:04:15.854Z,21.06
2017-08-29T02:05:15.855Z,21.00
2017-08-29T02:06:15.852Z,21.09
2017-08-29T02:07:15.848Z,21.08
2017-08-29T02:08:15.843Z,21.11
2017-08-29T02:09:15.836Z,21.06
2017-08-29T02:10:15.832Z,21.13
2017-08-29T02:11:15.827Z,21.06
2017-08-29T02:12:15.824Z,21.08
2017-08-29T02:13:15.829Z,21.01
2017-08-29T02:14:15.822Z,21.09
2017-08-29T02:15:15.817Z,21.03
2017-08-29T02:16:15.812Z,21.03
2017-08-29T02:17:15.808Z,20.90
2017-08-29T02:18:15.807Z,20.94
2017-08-29T02:19:15.801Z,20.83
2017-08-29T02:20:15.797Z,20.79
2017-08-29T02:21:15.790Z,20.82
2017-08-29T02:22:15.786Z,20.83
2017-08-29T02:23:15.783Z,20.73
2017-08-29T02:24:15.777Z,20.75
2017-08-29T02:25:15.775Z,20.73
2017-08-29T02:26:15.770Z,20.68
2017-08-29T02:27:15.781Z,20.63
2017-08-29T02:28:15.761Z,20.79
2017-08-29T02:29:15.764Z,20.79
2017-08-29T02:30:15.759Z,20.82
2017-08-29T02:31:15.755Z,20.90
2017-08-29T02:32:15.752Z,20.88
2017-08-29T02:33:15.746Z,20.94
2017-08-29T02:34:15.743Z,20.93
2017-08-29T02:35:15.739Z,20.91
2017-08-29T02:36:15.735Z,20.96
2017-08-29T02:37:15.728Z,20.91
2017-08-29T02:38:15.725Z,20.96
2017-08-29T02:39:15.721Z,20.85
2017-08-29T02:40:15.716Z,20.85
2017-08-29T02:41:15.711Z,20.83
2017-08-29T02:42:15.707Z,20.85
2017-08-29T02:43:15.703Z,20.94
2017-08-29T02:44:15.700Z,20.96
2017-08-29T02:45:15.700Z,21.08
2017-08-29T02:46:15.696Z,20.91
2017-08-29T02:47:15.693Z,21.03
2017-08-29T02:48:15.688Z,21.05
2017-08-29T02:49:15.684Z,21.00
2017-08-29T02:50:15.680Z,21.06
2017-08-29T02:51:15.677Z,20.98
2017-08-29T02:52:15.674Z,20.94
2017-08-29T02:53:15.666Z,20.94
2017-08-29T02:54:15.661Z,21.00
2017-08-29T02:55:15.656Z,21.06
2017-08-29T02:56:15.653Z,21.03
2017-08-29T02:57:15.649Z,21.11
2017-08-29T02:58:15.647Z,21.11
2017-08-29T02:59:15.641Z,21.03
2017-08-29T03:00:15.637Z,21.06
2017-08-29T03:01:15.638Z,21.01
2017-08-29T03:02:15.634Z,20.87
2017-08-29T03:03:15.630Z,20.97
2017-08-29T03:04:15.629Z,20.96
2017-08-29T03:05:15.621Z,20.96
2017-08-29T03:06:15.618Z,21.00
2017-08-29T03:07:15.613Z,21.00
2017-08-29T03:08:15.609Z,20.97
2017-08-29T03:09:15.602Z,20.98
2017-08-29T03:10:15.598Z,21.11
2017-08-29T03:11:15.593Z,21.05
2017-08-29T03:12:15.588Z,21.00
2017-08-29T03:13:15.590Z,21.12
2017-08-29T03:14:15.586Z,21.03
2017-08-29T03:15:15.583Z,21.00
2017-08-29T03:16:15.578Z,20.97
2017-08-29T03:17:15.570Z,20.98
2017-08-29T03:18:15.566Z,20.93
2017-08-29T03:19:15.562Z,20.78
2017-08-29T03:20:15.557Z,20.85
2017-08-29T03:21:15.553Z,20.88
2017-08-29T03:22:15.552Z,20.81
2017-08-29T03:23:15.547Z,20.82
2017-08-29T03:24:15.543Z,20.73
2017-08-29T03:25:15.543Z,20.73
2017-08-29T03:26:15.538Z,20.69
2017-08-29T03:27:15.534Z,20.68
2017-08-29T03:28:15.530Z,20.69
2017-08-29T03:29:15.527Z,20.53
2017-08-29T03:30:15.530Z,20.51
2017-08-29T03:31:15.519Z,20.53
2017-08-29T03:32:15.514Z,20.51
2017-08-29T03:33:15.507Z,20.51
2017-08-29T03:34:15.503Z,20.54
2017-08-29T03:35:15.499Z,20.53
2017-08-29T03:36:15.494Z,20.60
2017-08-29T03:37:15.490Z,20.66
2017-08-29T03:38:15.487Z,20.58
2017-08-29T03:39:15.481Z,20.54
2017-08-29T03:40:15.476Z,20.56
2017-08-29T03:41:15.477Z,20.54
2017-08-29T03:42:15.474Z,20.51
2017-08-29T03:43:15.472Z,20.51
2017-08-29T03:44:15.465Z,20.51
2017-08-29T03:45:15.461Z,20.58
2017-08-29T03:46:15.457Z,20.61
2017-08-29T03:47:15.455Z,20.61
2017-08-29T03:48:15.448Z,20.50
2017-08-29T03:49:15.449Z,20.58
2017-08-29T03:50:15.436Z,20.66
2017-08-29T03:51:15.433Z,20.66
2017-08-29T03:52:15.428Z,20.58
2017-08-29T03:53:15.425Z,20.61
2017-08-29T03:54:15.420Z,20.60
2017-08-29T03:55:15.416Z,20.61
2017-08-29T03:56:15.412Z,20.68
2017-08-29T03:57:15.415Z,20.68
2017-08-29T03:58:15.408Z,20.64
2017-08-29T03:59:15.404Z,20.69
2017-08-29T04:00:15.400Z,20.66
2017-08-29T04:01:15.396Z,20.72
2017-08-29T04:02:15.397Z,20.72
2017-08-29T04:03:15.388Z,20.68
2017-08-29T04:04:15.386Z,20.68
2017-08-29T04:05:15.375Z,20.66
2017-08-29T04:06:15.372Z,20.66
2017-08-29T04:07:15.369Z,20.64
2017-08-29T04:08:15.364Z,20.68
2017-08-29T04:09:15.360Z,20.61
2017-08-29T04:10:15.357Z,20.64
2017-08-29T04:11:15.351Z,20.63
2017-08-29T04:12:15.349Z,20.66
2017-08-29T04:13:15.348Z,20.66
2017-08-29T04:14:15.342Z,20.64
2017-08-29T04:15:15.339Z,20.64
2017-08-29T04:16:15.338Z,20.58
2017-08-29T04:17:15.328Z,20.53
2017-08-29T04:18:15.323Z,20.51
2017-08-29T04:19:15.319Z,20.53
2017-08-29T04:20:15.315Z,20.38
2017-08-29T04:21:15.313Z,20.46
2017-08-29T04:22:15.311Z,20.46
2017-08-29T04:23:15.306Z,20.46
2017-08-29T04:24:15.300Z,20.46
2017-08-29T04:25:15.297Z,20.42
2017-08-29T04:26:15.292Z,20.46
2017-08-29T04:27:15.289Z,20.40
2017-08-29T04:28:15.285Z,20.41
2017-08-29T04:29:15.277Z,20.46
2017-08-29T04:30:15.273Z,20.42
2017-08-29T04:31:15.268Z,20.41
2017-08-29T04:32:15.264Z,20.37
2017-08-29T04:33:15.260Z,20.37
2017-08-29T04:34:15.256Z,20.35
2017-08-29T04:35:15.252Z,20.31
2017-08-29T04:36:15.246Z,20.27
2017-08-29T04:37:15.247Z,20.25
2017-08-29T04:38:15.242Z,20.40
2017-08-29T04:39:15.239Z,20.31
2017-08-29T04:40:15.235Z,20.31
2017-08-29T04:41:15.230Z,20.33
2017-08-29T04:42:15.227Z,20.33
2017-08-29T04:43:15.221Z,20.33
2017-08-29T04:44:15.216Z,20.35
2017-08-29T04:45:15.208Z,20.37
2017-08-29T04:46:15.204Z,20.35
2017-08-29T04:47:15.200Z,20.38
2017-08-29T04:48:15.195Z,20.34
2017-08-29T04:49:15.192Z,20.30
2017-08-29T04:50:15.189Z,20.31
2017-08-29T04:51:15.184Z,20.20
2017-08-29T04:52:15.180Z,20.30
2017-08-29T04:53:15.180Z,20.25
2017-08-29T04:54:15.175Z,20.27
2017-08-29T04:55:15.171Z,20.35
2017-08-29T04:56:15.169Z,20.37
2017-08-29T04:57:15.161Z,20.37
2017-08-29T04:58:15.159Z,20.33
2017-08-29T04:59:15.154Z,20.46
2017-08-29T05:00:15.153Z,20.46
2017-08-29T05:01:15.141Z,20.51
2017-08-29T05:02:15.138Z,20.48
2017-08-29T05:03:15.134Z,20.51
2017-08-29T05:04:15.132Z,20.61
2017-08-29T05:05:15.125Z,20.64
2017-08-29T05:06:15.125Z,20.66
2017-08-29T05:07:15.117Z,20.66
2017-08-29T05:08:15.112Z,20.73
2017-08-29T05:09:15.113Z,20.76
2017-08-29T05:10:15.109Z,20.75
2017-08-29T05:11:15.104Z,20.81
2017-08-29T05:12:15.100Z,20.72
2017-08-29T05:13:15.096Z,20.82
2017-08-29T05:14:15.091Z,20.85
2017-08-29T05:15:15.088Z,20.97
2017-08-29T05:16:15.083Z,21.16
2017-08-29T05:17:15.074Z,21.51
2017-08-29T05:18:15.073Z,21.74
2017-08-29T05:19:15.067Z,21.98
2017-08-29T05:20:15.065Z,22.08
2017-08-29T05:21:15.063Z,22.12
2017-08-29T05:22:15.060Z,22.17
2017-08-29T05:23:15.056Z,22.26
2017-08-29T05:24:15.052Z,22.44
2017-08-29T05:25:15.043Z,22.61
2017-08-29T05:26:15.040Z,22.69
2017-08-29T05:27:15.038Z,22.60
2017-08-29T05:28:15.033Z,22.86
2017-08-29T05:29:15.030Z,22.72
2017-08-29T05:30:15.035Z,22.85
2017-08-29T05:31:15.025Z,22.74
2017-08-29T05:32:15.021Z,22.63
2017-08-29T05:33:15.022Z,22.59
2017-08-29T05:34:15.020Z,22.97
2017-08-29T05:35:15.017Z,23.31
2017-08-29T05:36:15.013Z,23.56
2017-08-29T05:37:15.011Z,23.71
2017-08-29T05:38:15.010Z,23.81
2017-08-29T05:39:15.007Z,23.96
2017-08-29T05:40:15.005Z,24.05
2017-08-29T05:41:14.999Z,24.34
2017-08-29T05:42:14.997Z,24.31
2017-08-29T05:43:14.994Z,24.33
2017-08-29T05:44:14.991Z,24.53
2017-08-29T05:45:14.993Z,24.79
2017-08-29T05:46:14.993Z,24.84
2017-08-29T05:47:14.987Z,25.14
2017-08-29T05:48:14.987Z,25.34
2017-08-29T05:49:14.989Z,25.31
2017-08-29T05:50:14.992Z,24.94
2017-08-29T05:51:14.987Z,25.05
2017-08-29T05:52:14.989Z,24.75
2017-08-29T05:53:14.985Z,24.89
2017-08-29T05:54:14.985Z,25.17
2017-08-29T05:55:14.986Z,25.04
2017-08-29T05:56:14.984Z,25.17
2017-08-29T05:57:14.998Z,25.09
2017-08-29T05:58:14.978Z,25.57
2017-08-29T05:59:14.980Z,25.49
2017-08-29T06:00:14.978Z,25.69
2017-08-29T06:01:14.978Z,25.86
2017-08-29T06:02:14.979Z,26.21
2017-08-29T06:03:14.981Z,26.21
2017-08-29T06:04:14.980Z,26.44
2017-08-29T06:05:14.986Z,26.31
2017-08-29T06:06:15.009Z,26.20
2017-08-29T06:07:14.988Z,25.83
2017-08-29T06:08:14.989Z,26.13
2017-08-29T06:09:14.987Z,26.39
2017-08-29T06:10:14.989Z,26.39
2017-08-29T06:11:14.996Z,26.03
2017-08-29T06:12:14.991Z,26.00
2017-08-29T06:13:14.988Z,25.91
2017-08-29T06:14:14.991Z,26.04
2017-08-29T06:15:14.991Z,25.85
2017-08-29T06:16:14.993Z,25.96
2017-08-29T06:17:14.995Z,26.11
2017-08-29T06:18:14.996Z,26.32
2017-08-29T06:19:14.999Z,25.93
2017-08-29T06:20:15.000Z,26.19
2017-08-29T06:21:15.007Z,26.64
2017-08-29T06:22:15.008Z,26.66
2017-08-29T06:23:15.011Z,26.71
2017-08-29T06:24:15.012Z,26.50
2017-08-29T06:25:15.015Z,26.09
2017-08-29T06:26:15.017Z,26.66
2017-08-29T06:27:15.019Z,26.76
2017-08-29T06:28:15.023Z,26.51
2017-08-29T06:29:15.022Z,26.78
2017-08-29T06:30:15.023Z,26.97
2017-08-29T06:31:15.026Z,27.39
2017-08-29T06:32:15.028Z,27.33
2017-08-29T06:33:15.034Z,27.59
2017-08-29T06:34:15.042Z,27.45
2017-08-29T06:35:15.039Z,27.33
2017-08-29T06:36:15.040Z,26.91
2017-08-29T06:37:15.050Z,26.94
2017-08-29T06:38:15.054Z,27.03
2017-08-29T06:39:15.055Z,26.88
2017-08-29T06:40:15.059Z,26.96
2017-08-29T06:41:15.061Z,27.12
2017-08-29T06:42:15.071Z,27.30
2017-08-29T06:43:15.070Z,27.42
2017-08-29T06:44:15.074Z,27.34
2017-08-29T06:45:15.073Z,27.77
2017-08-29T06:46:15.078Z,27.86
2017-08-29T06:47:15.085Z,28.13
2017-08-29T06:48:15.086Z,28.38
2017-08-29T06:49:15.090Z,28.18
2017-08-29T06:50:15.095Z,28.03
2017-08-29T06:51:15.099Z,27.52
2017-08-29T06:52:15.103Z,27.86
2017-08-29T06:53:15.112Z,28.05
2017-08-29T06:54:15.117Z,27.68
2017-08-29T06:55:15.122Z,27.83
2017-08-29T06:56:15.124Z,27.68
2017-08-29T06:57:15.129Z,27.76
2017-08-29T06:58:15.136Z,27.91
2017-08-29T06:59:15.140Z,28.35
2017-08-29T07:00:15.146Z,28.52
2017-08-29T07:01:15.146Z,29.20
2017-08-29T07:02:15.152Z,29.66
2017-08-29T07:03:15.157Z,30.03
2017-08-29T07:04:15.162Z,30.28
2017-08-29T07:05:15.166Z,30.21
2017-08-29T07:06:15.175Z,29.91
2017-08-29T07:07:15.177Z,30.53
2017-08-29T07:08:15.182Z,30.18
2017-08-29T07:09:15.192Z,30.25
2017-08-29T07:10:15.198Z,29.47
2017-08-29T07:11:15.205Z,30.08
2017-08-29T07:12:15.216Z,29.95
2017-08-29T07:13:15.217Z,29.63
2017-08-29T07:14:15.222Z,30.28
2017-08-29T07:15:15.229Z,30.29
2017-08-29T07:16:15.235Z,30.11
2017-08-29T07:17:15.237Z,30.32
2017-08-29T07:18:15.243Z,30.29
2017-08-29T07:19:15.250Z,29.69
2017-08-29T07:20:15.257Z,29.54
2017-08-29T07:21:15.263Z,29.76
2017-08-29T07:22:15.271Z,30.04
2017-08-29T07:23:15.278Z,30.10
2017-08-29T07:24:15.283Z,30.06
2017-08-29T07:25:15.295Z,30.25
2017-08-29T07:26:15.303Z,29.91
2017-08-29T07:27:15.311Z,29.92
2017-08-29T07:28:15.316Z,30.03
2017-08-29T07:29:15.320Z,30.91
2017-08-29T07:30:15.326Z,30.81
2017-08-29T07:31:15.335Z,30.68
2017-08-29T07:32:15.340Z,30.93
2017-08-29T07:33:15.354Z,31.97
2017-08-29T07:34:15.366Z,32.21
2017-08-29T07:35:15.369Z,32.83
2017-08-29T07:36:15.378Z,33.82
2017-08-29T07:37:15.383Z,34.50
2017-08-29T07:38:15.393Z,33.62
2017-08-29T07:39:15.401Z,34.30
2017-08-29T07:40:15.408Z,35.18
2017-08-29T07:41:15.412Z,34.75
2017-08-29T07:42:15.421Z,34.19
2017-08-29T07:43:15.431Z,34.99
2017-08-29T07:44:15.439Z,35.21
2017-08-29T07:45:15.450Z,35.13
2017-08-29T07:46:15.463Z,35.89
2017-08-29T07:47:15.467Z,35.37
2017-08-29T07:48:15.476Z,36.37
2017-08-29T07:49:15.492Z,36.49
2017-08-29T07:50:15.502Z,36.86
2017-08-29T07:51:15.512Z,37.65
2017-08-29T07:52:15.522Z,36.59
2017-08-29T07:53:15.533Z,36.30
2017-08-29T07:54:15.545Z,36.93
2017-08-29T07:55:15.555Z,36.27
2017-08-29T07:56:15.566Z,35.17
2017-08-29T07:57:15.573Z,36.22
2017-08-29T07:58:15.585Z,37.06
2017-08-29T07:59:15.596Z,36.59
2017-08-29T08:00:15.609Z,36.12
2017-08-29T08:01:15.618Z,36.49
2017-08-29T08:02:15.632Z,37.43
2017-08-29T08:03:15.642Z,37.99
2017-08-29T08:04:15.654Z,38.62
2017-08-29T08:05:15.671Z,38.10
2017-08-29T08:06:15.693Z,37.65
2017-08-29T08:07:15.695Z,37.16
2017-08-29T08:08:15.707Z,37.65
2017-08-29T08:09:15.719Z,38.50
2017-08-29T08:10:15.732Z,38.06
2017-08-29T08:11:15.768Z,36.97
2017-08-29T08:12:15.763Z,37.62
2017-08-29T08:13:15.772Z,37.01
2017-08-29T08:14:15.778Z,37.40
2017-08-29T08:15:15.794Z,37.20
2017-08-29T08:16:15.804Z,37.73
2017-08-29T08:17:15.816Z,36.34
2017-08-29T08:18:15.828Z,35.47
2017-08-29T08:19:15.843Z,34.78
2017-08-29T08:20:15.854Z,34.67
2017-08-29T08:21:15.872Z,34.78
2017-08-29T08:22:15.885Z,35.89
2017-08-29T08:23:15.897Z,35.89
2017-08-29T08:24:15.911Z,36.89
2017-08-29T08:25:15.922Z,35.85
2017-08-29T08:26:15.937Z,36.37
2017-08-29T08:27:15.950Z,36.40
2017-08-29T08:28:15.961Z,37.27
2017-08-29T08:29:15.970Z,36.91
2017-08-29T08:30:15.985Z,35.15
2017-08-29T08:31:15.997Z,35.00
2017-08-29T08:32:16.011Z,34.94
2017-08-29T08:33:16.029Z,35.89
2017-08-29T08:34:16.043Z,35.65
2017-08-29T08:35:16.057Z,35.96
2017-08-29T08:36:16.072Z,35.89
2017-08-29T08:37:16.080Z,35.92
2017-08-29T08:38:16.094Z,36.89
2017-08-29T08:39:16.107Z,37.53
2017-08-29T08:40:16.119Z,37.65
2017-08-29T08:41:16.135Z,38.12
2017-08-29T08:42:16.149Z,38.40
2017-08-29T08:43:16.168Z,38.38
2017-08-29T08:44:16.177Z,39.19
2017-08-29T08:45:16.196Z,38.93
2017-08-29T08:46:16.209Z,38.44
2017-08-29T08:47:16.225Z,38.25
2017-08-29T08:48:16.238Z,38.60
2017-08-29T08:49:16.252Z,38.97
2017-08-29T08:50:16.267Z,39.29
2017-08-29T08:51:16.282Z,39.94
2017-08-29T08:52:16.296Z,40.98
2017-08-29T08:53:16.307Z,40.57
2017-08-29T08:54:16.323Z,41.53
2017-08-29T08:55:16.338Z,41.35
2017-08-29T08:56:16.353Z,41.50
2017-08-29T08:57:16.369Z,41.63
2017-08-29T08:58:16.385Z,41.05
2017-08-29T08:59:16.400Z,41.12
2017-08-29T09:00:16.417Z,41.41
2017-08-29T09:01:16.437Z,41.70
2017-08-29T09:02:16.452Z,42.09
2017-08-29T09:03:16.469Z,42.36
2017-08-29T09:04:16.514Z,41.51
2017-08-29T09:05:16.502Z,42.54
2017-08-29T09:06:16.524Z,42.27
2017-08-29T09:07:16.535Z,42.23
2017-08-29T09:08:16.551Z,42.19
2017-08-29T09:09:16.563Z,41.88
2017-08-29T09:10:16.582Z,41.50
2017-08-29T09:11:16.598Z,41.26
2017-08-29T09:12:16.616Z,42.04
2017-08-29T09:13:16.632Z,41.12
2017-08-29T09:14:16.650Z,41.35
2017-08-29T09:15:16.666Z,41.42
2017-08-29T09:16:16.683Z,42.26
2017-08-29T09:17:16.705Z,41.57
2017-08-29T09:18:16.724Z,41.93
2017-08-29T09:19:16.740Z,41.58
2017-08-29T09:20:16.762Z,42.08
2017-08-29T09:21:16.779Z,40.63
2017-08-29T09:22:16.794Z,39.78
2017-08-29T09:23:16.812Z,40.11
2017-08-29T09:24:16.830Z,39.96
2017-08-29T09:25:16.843Z,40.46
2017-08-29T09:26:16.861Z,41.10
2017-08-29T09:27:16.889Z,41.96
2017-08-29T09:28:16.896Z,41.38
2017-08-29T09:29:16.914Z,41.83
2017-08-29T09:30:16.932Z,40.90
2017-08-29T09:31:16.952Z,39.97
2017-08-29T09:32:16.968Z,40.10
2017-08-29T09:33:16.990Z,40.56
2017-08-29T09:34:17.009Z,39.22
2017-08-29T09:35:17.025Z,39.73
2017-08-29T09:36:17.051Z,40.34
2017-08-29T09:37:17.058Z,41.47
2017-08-29T09:38:17.077Z,41.69
2017-08-29T09:39:17.097Z,41.92
2017-08-29T09:40:17.112Z,39.80
2017-08-29T09:41:17.135Z,40.19
2017-08-29T09:42:17.155Z,40.38
2017-08-29T09:43:17.173Z,41.28
2017-08-29T09:44:17.191Z,41.10
2017-08-29T09:45:17.209Z,40.13
2017-08-29T09:46:17.228Z,40.94
2017-08-29T09:47:17.248Z,42.00
2017-08-29T09:48:17.265Z,41.85
2017-08-29T09:49:17.281Z,42.45
2017-08-29T09:50:17.301Z,42.80
2017-08-29T09:51:17.319Z,43.25
2017-08-29T09:52:17.337Z,43.62
2017-08-29T09:53:17.356Z,43.77
2017-08-29T09:54:17.377Z,43.79
2017-08-29T09:55:17.397Z,43.81
2017-08-29T09:56:17.415Z,44.15
2017-08-29T09:57:17.439Z,41.31
2017-08-29T09:58:17.459Z,42.29
2017-08-29T09:59:17.477Z,42.75
2017-08-29T10:00:17.498Z,41.97
2017-08-29T10:01:17.518Z,41.53
2017-08-29T10:02:17.538Z,40.24
2017-08-29T10:03:17.561Z,40.44
2017-08-29T10:04:17.577Z,41.29
2017-08-29T10:05:17.591Z,41.32
2017-08-29T10:06:17.612Z,42.30
2017-08-29T10:07:17.630Z,41.73
2017-08-29T10:08:17.650Z,40.73
2017-08-29T10:09:17.669Z,40.24
2017-08-29T10:10:17.687Z,39.51
2017-08-29T10:11:17.708Z,41.02
2017-08-29T10:12:17.727Z,41.96
2017-08-29T10:13:17.748Z,42.71
2017-08-29T10:14:17.768Z,42.50
2017-08-29T10:15:17.788Z,41.72
2017-08-29T10:16:17.811Z,40.98
2017-08-29T10:17:17.827Z,40.53
2017-08-29T10:18:17.844Z,41.16
2017-08-29T10:19:17.863Z,41.55
2017-08-29T10:20:17.881Z,41.51
2017-08-29T10:21:17.895Z,42.05
2017-08-29T10:22:17.914Z,41.97
2017-08-29T10:23:17.932Z,42.26
2017-08-29T10:24:17.950Z,40.90
2017-08-29T10:25:17.970Z,39.46
2017-08-29T10:26:17.987Z,39.48
2017-08-29T10:27:18.006Z,39.41
2017-08-29T10:28:18.024Z,38.92
2017-08-29T10:29:18.047Z,38.58
2017-08-29T10:30:18.066Z,38.77
2017-08-29T10:31:18.084Z,38.89
2017-08-29T10:32:18.101Z,38.86
2017-08-29T10:33:18.122Z,39.12
2017-08-29T10:34:18.138Z,39.02
2017-08-29T10:35:18.166Z,39.82
2017-08-29T10:36:18.174Z,40.38
2017-08-29T10:37:18.188Z,40.58
2017-08-29T10:38:18.206Z,40.91
2017-08-29T10:39:18.224Z,41.12
2017-08-29T10:40:18.240Z,41.54
2017-08-29T10:41:18.263Z,42.31
2017-08-29T10:42:18.283Z,42.49
2017-08-29T10:43:18.300Z,42.95
2017-08-29T10:44:18.320Z,42.20
2017-08-29T10:45:18.331Z,41.83
2017-08-29T10:46:18.352Z,41.33
2017-08-29T10:47:18.367Z,40.56
2017-08-29T10:48:18.384Z,41.17
2017-08-29T10:49:18.402Z,41.09
2017-08-29T10:50:18.421Z,41.48
2017-08-29T10:51:18.441Z,41.50
2017-08-29T10:52:18.454Z,41.95
2017-08-29T10:53:18.477Z,41.82
2017-08-29T10:54:18.495Z,41.69
2017-08-29T10:55:18.514Z,41.53
2017-08-29T10:56:18.531Z,41.70
2017-08-29T10:57:18.553Z,41.41
2017-08-29T10:58:18.566Z,41.26
2017-08-29T10:59:18.584Z,40.04
2017-08-29T11:00:18.605Z,40.15
2017-08-29T11:01:18.616Z,40.58
2017-08-29T11:02:18.634Z,41.38
2017-08-29T11:03:18.651Z,40.73
2017-08-29T11:04:18.669Z,40.53
2017-08-29T11:05:18.687Z,41.39
2017-08-29T11:06:18.703Z,41.82
2017-08-29T11:07:18.721Z,41.44
2017-08-29T11:08:18.738Z,41.66
2017-08-29T11:09:18.760Z,41.29
2017-08-29T11:10:18.777Z,42.17
2017-08-29T11:11:18.795Z,42.58
2017-08-29T11:12:18.815Z,42.73
2017-08-29T11:13:18.828Z,42.91
2017-08-29T11:14:18.849Z,42.62
2017-08-29T11:15:18.864Z,40.88
2017-08-29T11:16:18.879Z,40.31
2017-08-29T11:17:18.892Z,40.60
2017-08-29T11:18:18.910Z,41.21
2017-08-29T11:19:18.927Z,41.82
2017-08-29T11:20:18.942Z,42.11
2017-08-29T11:21:18.963Z,42.21
2017-08-29T11:22:18.976Z,41.72
2017-08-29T11:23:18.994Z,41.85
2017-08-29T11:24:19.009Z,41.70
2017-08-29T11:25:19.030Z,41.72
2017-08-29T11:26:19.047Z,41.38
2017-08-29T11:27:19.063Z,41.13
2017-08-29T11:28:19.076Z,40.44
2017-08-29T11:29:19.093Z,39.36
2017-08-29T11:30:19.107Z,38.38
2017-08-29T11:31:19.124Z,37.24
2017-08-29T11:32:19.141Z,37.16
2017-08-29T11:33:19.148Z,37.23
2017-08-29T11:34:19.161Z,37.12
2017-08-29T11:35:19.176Z,36.60
2017-08-29T11:36:19.189Z,36.56
2017-08-29T11:37:19.200Z,36.33
2017-08-29T11:38:19.215Z,36.22
2017-08-29T11:39:19.226Z,36.34
2017-08-29T11:40:19.238Z,36.44
2017-08-29T11:41:19.255Z,36.52
2017-08-29T11:42:19.268Z,36.34
2017-08-29T11:43:19.280Z,36.27
2017-08-29T11:44:19.290Z,36.34
2017-08-29T11:45:19.297Z,36.43
2017-08-29T11:46:19.307Z,36.50
2017-08-29T11:47:19.317Z,36.49
2017-08-29T11:48:19.327Z,36.30
2017-08-29T11:49:19.342Z,35.96
2017-08-29T11:50:19.353Z,35.81
2017-08-29T11:51:19.363Z,35.52
2017-08-29T11:52:19.370Z,35.54
2017-08-29T11:53:19.380Z,35.47
2017-08-29T11:54:19.390Z,35.61
2017-08-29T11:55:19.400Z,35.73
2017-08-29T11:56:19.408Z,35.76
2017-08-29T11:57:19.412Z,35.77
2017-08-29T11:58:19.422Z,35.87
2017-08-29T11:59:19.431Z,35.99
2017-08-29T12:00:19.441Z,35.77
2017-08-29T12:01:19.445Z,35.80
2017-08-29T12:02:19.455Z,35.80
2017-08-29T12:03:19.463Z,35.76
2017-08-29T12:04:19.470Z,35.66
2017-08-29T12:05:19.484Z,35.50
2017-08-29T12:06:19.491Z,35.52
2017-08-29T12:07:19.525Z,35.62
2017-08-29T12:08:19.505Z,35.74
2017-08-29T12:09:19.512Z,35.83
2017-08-29T12:10:19.521Z,35.66
2017-08-29T12:11:19.528Z,35.32
2017-08-29T12:12:19.534Z,35.29
2017-08-29T12:13:19.541Z,35.37
2017-08-29T12:14:19.553Z,35.24
2017-08-29T12:15:19.552Z,35.18
2017-08-29T12:16:19.558Z,35.12
2017-08-29T12:17:19.565Z,35.06
2017-08-29T12:18:19.572Z,35.09
2017-08-29T12:19:19.579Z,35.10
2017-08-29T12:20:19.586Z,35.03
2017-08-29T12:21:19.599Z,34.80
2017-08-29T12:22:19.603Z,34.73
2017-08-29T12:23:19.612Z,34.73
2017-08-29T12:24:19.617Z,34.56
2017-08-29T12:25:19.625Z,34.71
2017-08-29T12:26:19.633Z,34.72
2017-08-29T12:27:19.638Z,34.65
2017-08-29T12:28:19.644Z,34.65
2017-08-29T12:29:19.646Z,34.69
2017-08-29T12:30:19.653Z,34.53
2017-08-29T12:31:19.659Z,34.53
2017-08-29T12:32:19.665Z,34.50
2017-08-29T12:33:19.672Z,34.34
2017-08-29T12:34:19.678Z,34.53
2017-08-29T12:35:19.684Z,34.71
2017-08-29T12:36:19.690Z,34.64
2017-08-29T12:37:19.701Z,34.83
2017-08-29T12:38:19.707Z,34.83
2017-08-29T12:39:19.714Z,34.60
2017-08-29T12:40:19.717Z,34.52
2017-08-29T12:41:19.724Z,34.40
2017-08-29T12:42:19.731Z,34.11
2017-08-29T12:43:19.738Z,33.97
2017-08-29T12:44:19.742Z,33.89
2017-08-29T12:45:19.745Z,33.74
2017-08-29T12:46:19.751Z,33.81
2017-08-29T12:47:19.756Z,33.86
2017-08-29T12:48:19.761Z,34.00
2017-08-29T12:49:19.773Z,33.97
2017-08-29T12:50:19.778Z,34.11
2017-08-29T12:51:19.785Z,34.31
2017-08-29T12:52:19.789Z,34.40